sensor_id;sensor_type;location;lat;lon;timestamp;temperature;humidity
38464;DHT22;24243;51.956;5.902;2022-09-09T00:02:24;25.20;50.10
38464;DHT22;24243;51.956;5.902;2022-09-09T00:05:07;25.20;50.10
38464;DHT22;24243;51.956;5.902;2022-09-09T00:07:41;25.20;50.10
38464;DHT22;24243;51.956;5.902;2022-09-09T00:10:26;25.20;50.10
38464;DHT22;24243;51.956;5.902;2022-09-09T00:15:22;25.20;50.20
38464;DHT22;24243;51.956;5.902;2022-09-09T00:18:10;25.20;50.20
38464;DHT22;24243;51.956;5.902;2022-09-09T00:23:16;25.20;50.20
38464;DHT22;24243;51.956;5.902;2022-09-09T00:25:56;25.20;50.20
38464;DHT22;24243;51.956;5.902;2022-09-09T00:28:25;25.20;50.20
38464;DHT22;24243;51.956;5.902;2022-09-09T00:30:50;25.10;50.10
38464;DHT22;24243;51.956;5.902;2022-09-09T00:33:17;25.20;50.20
38464;DHT22;24243;51.956;5.902;2022-09-09T00:35:48;25.20;50.20
38464;DHT22;24243;51.956;5.902;2022-09-09T00:41:00;25.10;50.10
38464;DHT22;24243;51.956;5.902;2022-09-09T00:43:29;25.20;50.20
38464;DHT22;24243;51.956;5.902;2022-09-09T00:48:31;25.10;50.20
38464;DHT22;24243;51.956;5.902;2022-09-09T00:51:00;25.10;50.20
38464;DHT22;24243;51.956;5.902;2022-09-09T00:53:38;25.10;50.20
38464;DHT22;24243;51.956;5.902;2022-09-09T00:56:12;25.10;50.20
38464;DHT22;24243;51.956;5.902;2022-09-09T00:58:38;25.10;50.20
38464;DHT22;24243;51.956;5.902;2022-09-09T01:01:04;25.10;50.20
38464;DHT22;24243;51.956;5.902;2022-09-09T01:03:36;25.10;50.20
38464;DHT22;24243;51.956;5.902;2022-09-09T01:06:12;25.10;50.20
38464;DHT22;24243;51.956;5.902;2022-09-09T01:11:07;25.10;50.20
38464;DHT22;24243;51.956;5.902;2022-09-09T01:13:35;25.10;50.20
38464;DHT22;24243;51.956;5.902;2022-09-09T01:16:03;25.00;50.10
38464;DHT22;24243;51.956;5.902;2022-09-09T01:18:31;25.10;50.20
38464;DHT22;24243;51.956;5.902;2022-09-09T01:28:35;25.00;50.20
38464;DHT22;24243;51.956;5.902;2022-09-09T01:31:03;25.00;50.20
38464;DHT22;24243;51.956;5.902;2022-09-09T01:33:29;25.00;50.20
38464;DHT22;24243;51.956;5.902;2022-09-09T01:35:57;25.00;50.20
38464;DHT22;24243;51.956;5.902;2022-09-09T01:38:25;25.00;50.20
38464;DHT22;24243;51.956;5.902;2022-09-09T01:40:51;25.00;50.20
38464;DHT22;24243;51.956;5.902;2022-09-09T01:43:20;25.00;50.20
38464;DHT22;24243;51.956;5.902;2022-09-09T01:45:46;25.00;50.20
38464;DHT22;24243;51.956;5.902;2022-09-09T01:48:11;25.00;50.20
38464;DHT22;24243;51.956;5.902;2022-09-09T01:50:37;25.00;50.20
38464;DHT22;24243;51.956;5.902;2022-09-09T01:53:02;25.00;50.20
38464;DHT22;24243;51.956;5.902;2022-09-09T01:55:39;25.00;50.20
38464;DHT22;24243;51.956;5.902;2022-09-09T01:58:28;25.00;50.20
38464;DHT22;24243;51.956;5.902;2022-09-09T02:00:54;25.00;50.20
38464;DHT22;24243;51.956;5.902;2022-09-09T02:03:27;25.00;50.20
38464;DHT22;24243;51.956;5.902;2022-09-09T02:08:26;25.00;50.20
38464;DHT22;24243;51.956;5.902;2022-09-09T02:13:28;25.00;50.20
38464;DHT22;24243;51.956;5.902;2022-09-09T02:15:58;25.00;50.80
38464;DHT22;24243;51.956;5.902;2022-09-09T02:18:30;25.00;50.10
38464;DHT22;24243;51.956;5.902;2022-09-09T02:20:57;25.00;50.10
38464;DHT22;24243;51.956;5.902;2022-09-09T02:23:23;25.00;50.10
38464;DHT22;24243;51.956;5.902;2022-09-09T02:25:49;25.00;50.10
38464;DHT22;24243;51.956;5.902;2022-09-09T02:28:17;25.00;50.10
38464;DHT22;24243;51.956;5.902;2022-09-09T02:30:44;25.00;50.10
38464;DHT22;24243;51.956;5.902;2022-09-09T02:33:12;25.00;50.10
38464;DHT22;24243;51.956;5.902;2022-09-09T02:35:39;25.00;50.10
38464;DHT22;24243;51.956;5.902;2022-09-09T02:38:08;24.90;50.00
38464;DHT22;24243;51.956;5.902;2022-09-09T02:40:35;24.90;50.00
38464;DHT22;24243;51.956;5.902;2022-09-09T02:43:01;25.00;50.10
38464;DHT22;24243;51.956;5.902;2022-09-09T02:45:41;24.90;50.00
38464;DHT22;24243;51.956;5.902;2022-09-09T02:48:28;24.90;50.00
38464;DHT22;24243;51.956;5.902;2022-09-09T02:56:16;24.90;50.00
38464;DHT22;24243;51.956;5.902;2022-09-09T02:58:42;24.90;50.00
38464;DHT22;24243;51.956;5.902;2022-09-09T03:01:07;24.90;50.00
38464;DHT22;24243;51.956;5.902;2022-09-09T03:03:34;24.90;50.00
38464;DHT22;24243;51.956;5.902;2022-09-09T03:06:00;24.90;50.00
38464;DHT22;24243;51.956;5.902;2022-09-09T03:08:25;24.90;50.00
38464;DHT22;24243;51.956;5.902;2022-09-09T03:10:55;24.90;50.00
38464;DHT22;24243;51.956;5.902;2022-09-09T03:13:23;24.90;50.00
38464;DHT22;24243;51.956;5.902;2022-09-09T03:15:49;24.90;50.00
38464;DHT22;24243;51.956;5.902;2022-09-09T03:18:15;24.90;50.00
38464;DHT22;24243;51.956;5.902;2022-09-09T03:20:41;24.90;50.00
38464;DHT22;24243;51.956;5.902;2022-09-09T03:23:07;24.90;50.00
38464;DHT22;24243;51.956;5.902;2022-09-09T03:25:32;24.80;49.90
38464;DHT22;24243;51.956;5.902;2022-09-09T03:27:58;24.90;50.00
38464;DHT22;24243;51.956;5.902;2022-09-09T03:30:24;24.90;50.00
38464;DHT22;24243;51.956;5.902;2022-09-09T03:32:50;24.80;49.90
38464;DHT22;24243;51.956;5.902;2022-09-09T03:35:16;24.80;50.00
38464;DHT22;24243;51.956;5.902;2022-09-09T03:37:42;24.80;49.90
38464;DHT22;24243;51.956;5.902;2022-09-09T03:40:08;24.80;49.90
38464;DHT22;24243;51.956;5.902;2022-09-09T03:42:35;24.80;49.90
38464;DHT22;24243;51.956;5.902;2022-09-09T03:45:02;24.90;50.00
38464;DHT22;24243;51.956;5.902;2022-09-09T03:47:28;24.80;49.90
38464;DHT22;24243;51.956;5.902;2022-09-09T03:49:54;24.80;49.90
38464;DHT22;24243;51.956;5.902;2022-09-09T03:52:19;24.80;49.90
38464;DHT22;24243;51.956;5.902;2022-09-09T03:54:47;24.80;49.90
38464;DHT22;24243;51.956;5.902;2022-09-09T03:57:13;24.80;50.00
38464;DHT22;24243;51.956;5.902;2022-09-09T03:59:42;24.80;49.90
38464;DHT22;24243;51.956;5.902;2022-09-09T04:02:07;24.80;49.90
38464;DHT22;24243;51.956;5.902;2022-09-09T04:04:34;24.80;49.90
38464;DHT22;24243;51.956;5.902;2022-09-09T04:06:59;24.80;49.90
38464;DHT22;24243;51.956;5.902;2022-09-09T04:09:25;24.80;49.90
38464;DHT22;24243;51.956;5.902;2022-09-09T04:11:51;24.80;49.90
38464;DHT22;24243;51.956;5.902;2022-09-09T04:14:17;24.80;49.90
38464;DHT22;24243;51.956;5.902;2022-09-09T04:16:43;24.70;49.90
38464;DHT22;24243;51.956;5.902;2022-09-09T04:19:10;24.70;49.80
38464;DHT22;24243;51.956;5.902;2022-09-09T04:21:38;24.70;49.90
38464;DHT22;24243;51.956;5.902;2022-09-09T04:24:05;24.70;49.90
38464;DHT22;24243;51.956;5.902;2022-09-09T04:26:30;24.70;49.90
38464;DHT22;24243;51.956;5.902;2022-09-09T04:28:56;24.70;49.90
38464;DHT22;24243;51.956;5.902;2022-09-09T04:31:22;24.70;49.90
38464;DHT22;24243;51.956;5.902;2022-09-09T04:33:49;24.80;49.90
38464;DHT22;24243;51.956;5.902;2022-09-09T04:36:15;24.70;49.90
38464;DHT22;24243;51.956;5.902;2022-09-09T04:38:40;24.80;49.90
38464;DHT22;24243;51.956;5.902;2022-09-09T04:41:06;24.70;49.90
38464;DHT22;24243;51.956;5.902;2022-09-09T04:43:32;24.70;49.90
38464;DHT22;24243;51.956;5.902;2022-09-09T04:45:58;24.70;49.90
38464;DHT22;24243;51.956;5.902;2022-09-09T04:48:26;24.70;49.90
38464;DHT22;24243;51.956;5.902;2022-09-09T04:51:11;24.70;49.90
38464;DHT22;24243;51.956;5.902;2022-09-09T04:53:37;24.70;49.90
38464;DHT22;24243;51.956;5.902;2022-09-09T04:56:04;24.70;49.90
38464;DHT22;24243;51.956;5.902;2022-09-09T04:58:30;24.70;49.90
38464;DHT22;24243;51.956;5.902;2022-09-09T05:01:02;24.70;49.90
38464;DHT22;24243;51.956;5.902;2022-09-09T05:03:28;24.70;49.90
38464;DHT22;24243;51.956;5.902;2022-09-09T05:05:53;24.70;49.90
38464;DHT22;24243;51.956;5.902;2022-09-09T05:08:19;24.70;50.00
38464;DHT22;24243;51.956;5.902;2022-09-09T05:10:46;24.70;49.90
38464;DHT22;24243;51.956;5.902;2022-09-09T05:13:11;24.70;50.00
38464;DHT22;24243;51.956;5.902;2022-09-09T05:15:37;24.70;50.60
38464;DHT22;24243;51.956;5.902;2022-09-09T05:18:02;24.70;49.90
38464;DHT22;24243;51.956;5.902;2022-09-09T05:20:28;24.70;50.00
38464;DHT22;24243;51.956;5.902;2022-09-09T05:22:54;24.70;50.00
38464;DHT22;24243;51.956;5.902;2022-09-09T05:25:20;24.70;50.00
38464;DHT22;24243;51.956;5.902;2022-09-09T05:27:47;24.70;50.10
38464;DHT22;24243;51.956;5.902;2022-09-09T05:30:13;24.70;50.20
38464;DHT22;24243;51.956;5.902;2022-09-09T05:32:38;24.60;50.20
38464;DHT22;24243;51.956;5.902;2022-09-09T05:35:04;24.60;50.40
38464;DHT22;24243;51.956;5.902;2022-09-09T05:37:30;24.50;50.50
38464;DHT22;24243;51.956;5.902;2022-09-09T05:39:56;24.50;50.60
38464;DHT22;24243;51.956;5.902;2022-09-09T05:42:23;24.50;50.70
38464;DHT22;24243;51.956;5.902;2022-09-09T05:44:48;24.40;50.70
38464;DHT22;24243;51.956;5.902;2022-09-09T05:47:16;24.40;50.80
38464;DHT22;24243;51.956;5.902;2022-09-09T05:49:42;24.40;50.90
38464;DHT22;24243;51.956;5.902;2022-09-09T05:52:07;24.30;50.90
38464;DHT22;24243;51.956;5.902;2022-09-09T05:54:34;24.30;50.90
38464;DHT22;24243;51.956;5.902;2022-09-09T05:57:00;24.30;51.00
38464;DHT22;24243;51.956;5.902;2022-09-09T05:59:25;24.30;51.00
38464;DHT22;24243;51.956;5.902;2022-09-09T06:01:51;24.30;51.10
38464;DHT22;24243;51.956;5.902;2022-09-09T06:04:17;24.30;51.10
38464;DHT22;24243;51.956;5.902;2022-09-09T06:06:43;24.30;51.20
38464;DHT22;24243;51.956;5.902;2022-09-09T06:09:09;24.30;51.10
38464;DHT22;24243;51.956;5.902;2022-09-09T06:11:36;24.50;51.00
38464;DHT22;24243;51.956;5.902;2022-09-09T06:14:02;24.60;50.80
38464;DHT22;24243;51.956;5.902;2022-09-09T06:16:28;24.90;50.50
38464;DHT22;24243;51.956;5.902;2022-09-09T06:18:55;25.10;50.20
38464;DHT22;24243;51.956;5.902;2022-09-09T06:23:47;25.30;49.80
38464;DHT22;24243;51.956;5.902;2022-09-09T06:28:38;25.30;49.80
38464;DHT22;24243;51.956;5.902;2022-09-09T06:31:05;25.30;49.80
38464;DHT22;24243;51.956;5.902;2022-09-09T06:33:32;25.40;49.70
38464;DHT22;24243;51.956;5.902;2022-09-09T06:36:00;25.50;49.60
38464;DHT22;24243;51.956;5.902;2022-09-09T06:38:26;25.40;49.50
38464;DHT22;24243;51.956;5.902;2022-09-09T06:40:52;25.40;49.60
38464;DHT22;24243;51.956;5.902;2022-09-09T06:43:18;25.30;49.70
38464;DHT22;24243;51.956;5.902;2022-09-09T06:45:52;25.20;49.70
38464;DHT22;24243;51.956;5.902;2022-09-09T06:48:17;25.40;49.90
38464;DHT22;24243;51.956;5.902;2022-09-09T06:50:43;25.40;49.70
38464;DHT22;24243;51.956;5.902;2022-09-09T06:53:08;25.50;49.70
38464;DHT22;24243;51.956;5.902;2022-09-09T06:55:34;25.50;49.60
38464;DHT22;24243;51.956;5.902;2022-09-09T06:58:00;25.50;49.70
38464;DHT22;24243;51.956;5.902;2022-09-09T07:00:27;25.70;49.70
38464;DHT22;24243;51.956;5.902;2022-09-09T07:02:52;25.90;49.40
38464;DHT22;24243;51.956;5.902;2022-09-09T07:05:18;26.10;49.20
38464;DHT22;24243;51.956;5.902;2022-09-09T07:07:44;26.40;49.00
38464;DHT22;24243;51.956;5.902;2022-09-09T07:10:10;26.60;48.80
38464;DHT22;24243;51.956;5.902;2022-09-09T07:12:35;26.60;49.10
38464;DHT22;24243;51.956;5.902;2022-09-09T07:15:01;26.70;48.40
38464;DHT22;24243;51.956;5.902;2022-09-09T07:17:26;26.70;48.40
38464;DHT22;24243;51.956;5.902;2022-09-09T07:19:53;26.60;48.50
38464;DHT22;24243;51.956;5.902;2022-09-09T07:22:19;26.40;48.70
38464;DHT22;24243;51.956;5.902;2022-09-09T07:24:45;26.20;48.90
38464;DHT22;24243;51.956;5.902;2022-09-09T07:27:11;26.10;49.10
38464;DHT22;24243;51.956;5.902;2022-09-09T07:29:36;25.90;49.30
38464;DHT22;24243;51.956;5.902;2022-09-09T07:32:02;25.90;49.50
38464;DHT22;24243;51.956;5.902;2022-09-09T07:34:29;25.90;49.50
38464;DHT22;24243;51.956;5.902;2022-09-09T07:36:55;25.90;49.50
38464;DHT22;24243;51.956;5.902;2022-09-09T07:39:22;26.00;49.40
38464;DHT22;24243;51.956;5.902;2022-09-09T07:41:48;26.00;49.30
38464;DHT22;24243;51.956;5.902;2022-09-09T07:44:15;26.10;49.20
38464;DHT22;24243;51.956;5.902;2022-09-09T07:46:42;26.10;49.20
38464;DHT22;24243;51.956;5.902;2022-09-09T07:49:08;26.20;49.00
38464;DHT22;24243;51.956;5.902;2022-09-09T07:51:35;26.20;49.00
38464;DHT22;24243;51.956;5.902;2022-09-09T07:54:02;26.10;49.00
38464;DHT22;24243;51.956;5.902;2022-09-09T07:56:29;26.00;49.20
38464;DHT22;24243;51.956;5.902;2022-09-09T07:58:55;25.90;49.30
38464;DHT22;24243;51.956;5.902;2022-09-09T08:01:22;25.90;49.40
38464;DHT22;24243;51.956;5.902;2022-09-09T08:03:52;25.80;49.40
38464;DHT22;24243;51.956;5.902;2022-09-09T08:06:18;25.80;49.50
38464;DHT22;24243;51.956;5.902;2022-09-09T08:08:44;25.70;49.50
38464;DHT22;24243;51.956;5.902;2022-09-09T08:11:14;25.70;49.60
38464;DHT22;24243;51.956;5.902;2022-09-09T08:13:41;25.70;49.60
38464;DHT22;24243;51.956;5.902;2022-09-09T08:16:14;25.60;49.60
38464;DHT22;24243;51.956;5.902;2022-09-09T08:18:40;25.50;49.70
38464;DHT22;24243;51.956;5.902;2022-09-09T08:21:10;25.50;49.80
38464;DHT22;24243;51.956;5.902;2022-09-09T08:23:39;25.40;49.80
38464;DHT22;24243;51.956;5.902;2022-09-09T08:26:26;25.40;49.90
38464;DHT22;24243;51.956;5.902;2022-09-09T08:28:51;25.40;49.90
38464;DHT22;24243;51.956;5.902;2022-09-09T08:31:18;25.40;50.00
38464;DHT22;24243;51.956;5.902;2022-09-09T08:33:44;25.30;50.00
38464;DHT22;24243;51.956;5.902;2022-09-09T08:36:31;25.20;50.00
38464;DHT22;24243;51.956;5.902;2022-09-09T08:39:02;25.20;50.10
38464;DHT22;24243;51.956;5.902;2022-09-09T08:44:23;25.20;50.20
38464;DHT22;24243;51.956;5.902;2022-09-09T08:49:29;25.10;50.20
38464;DHT22;24243;51.956;5.902;2022-09-09T08:52:00;25.10;50.20
38464;DHT22;24243;51.956;5.902;2022-09-09T08:54:27;25.00;50.20
38464;DHT22;24243;51.956;5.902;2022-09-09T08:56:56;25.00;50.20
38464;DHT22;24243;51.956;5.902;2022-09-09T08:59:21;25.00;50.20
38464;DHT22;24243;51.956;5.902;2022-09-09T09:01:56;25.00;50.20
38464;DHT22;24243;51.956;5.902;2022-09-09T09:12:06;25.00;50.20
38464;DHT22;24243;51.956;5.902;2022-09-09T09:14:35;25.00;50.20
38464;DHT22;24243;51.956;5.902;2022-09-09T09:17:02;25.00;50.10
38464;DHT22;24243;51.956;5.902;2022-09-09T09:19:29;25.00;50.10
38464;DHT22;24243;51.956;5.902;2022-09-09T09:22:00;25.00;50.10
38464;DHT22;24243;51.956;5.902;2022-09-09T09:24:38;25.00;50.10
38464;DHT22;24243;51.956;5.902;2022-09-09T09:27:20;24.90;50.10
38464;DHT22;24243;51.956;5.902;2022-09-09T09:29:47;24.90;50.10
38464;DHT22;24243;51.956;5.902;2022-09-09T09:32:16;24.80;50.10
38464;DHT22;24243;51.956;5.902;2022-09-09T09:34:47;24.80;50.20
38464;DHT22;24243;51.956;5.902;2022-09-09T09:37:17;24.70;50.10
38464;DHT22;24243;51.956;5.902;2022-09-09T09:39:44;24.60;50.20
38464;DHT22;24243;51.956;5.902;2022-09-09T09:42:14;24.60;50.30
38464;DHT22;24243;51.956;5.902;2022-09-09T09:44:40;24.50;50.40
38464;DHT22;24243;51.956;5.902;2022-09-09T09:47:13;24.40;50.50
38464;DHT22;24243;51.956;5.902;2022-09-09T09:49:39;24.30;50.50
38464;DHT22;24243;51.956;5.902;2022-09-09T09:52:05;24.20;50.60
38464;DHT22;24243;51.956;5.902;2022-09-09T09:54:37;24.20;50.70
38464;DHT22;24243;51.956;5.902;2022-09-09T09:57:10;24.20;50.80
38464;DHT22;24243;51.956;5.902;2022-09-09T09:59:36;24.10;50.80
38464;DHT22;24243;51.956;5.902;2022-09-09T10:04:40;24.00;50.70
38464;DHT22;24243;51.956;5.902;2022-09-09T10:07:39;24.00;50.80
38464;DHT22;24243;51.956;5.902;2022-09-09T10:09:58;24.00;50.80
38464;DHT22;24243;51.956;5.902;2022-09-09T10:12:43;24.00;50.80
38464;DHT22;24243;51.956;5.902;2022-09-09T10:17:47;24.10;50.60
38464;DHT22;24243;51.956;5.902;2022-09-09T10:23:14;24.20;50.50
38464;DHT22;24243;51.956;5.902;2022-09-09T10:25:58;24.20;50.40
38464;DHT22;24243;51.956;5.902;2022-09-09T10:28:32;24.30;50.40
38464;DHT22;24243;51.956;5.902;2022-09-09T10:31:11;24.30;50.30
38464;DHT22;24243;51.956;5.902;2022-09-09T10:36:24;24.40;50.20
38464;DHT22;24243;51.956;5.902;2022-09-09T10:39:04;24.50;50.20
38464;DHT22;24243;51.956;5.902;2022-09-09T10:46:46;24.60;50.20
38464;DHT22;24243;51.956;5.902;2022-09-09T10:54:29;24.60;50.10
38464;DHT22;24243;51.956;5.902;2022-09-09T10:59:43;24.70;50.10
38464;DHT22;24243;51.956;5.902;2022-09-09T11:04:44;24.60;50.10
38464;DHT22;24243;51.956;5.902;2022-09-09T11:07:12;24.60;50.20
38464;DHT22;24243;51.956;5.902;2022-09-09T11:09:39;24.60;50.30
38464;DHT22;24243;51.956;5.902;2022-09-09T11:12:06;24.60;50.30
38464;DHT22;24243;51.956;5.902;2022-09-09T11:14:45;24.60;50.40
38464;DHT22;24243;51.956;5.902;2022-09-09T11:19:45;24.50;50.30
38464;DHT22;24243;51.956;5.902;2022-09-09T11:27:32;24.50;50.50
38464;DHT22;24243;51.956;5.902;2022-09-09T11:40:24;24.50;51.00
38464;DHT22;24243;51.956;5.902;2022-09-09T11:45:38;24.50;51.10
38464;DHT22;24243;51.956;5.902;2022-09-09T11:48:05;24.60;51.20
38464;DHT22;24243;51.956;5.902;2022-09-09T11:50:36;24.50;51.20
38464;DHT22;24243;51.956;5.902;2022-09-09T11:53:21;24.60;51.20
38464;DHT22;24243;51.956;5.902;2022-09-09T11:55:48;24.60;51.20
38464;DHT22;24243;51.956;5.902;2022-09-09T11:58:24;24.50;51.20
38464;DHT22;24243;51.956;5.902;2022-09-09T12:00:50;24.50;51.30
38464;DHT22;24243;51.956;5.902;2022-09-09T12:06:09;24.50;51.60
38464;DHT22;24243;51.956;5.902;2022-09-09T12:08:36;24.50;51.70
38464;DHT22;24243;51.956;5.902;2022-09-09T12:11:02;24.50;51.80
38464;DHT22;24243;51.956;5.902;2022-09-09T12:13:31;24.50;51.90
38464;DHT22;24243;51.956;5.902;2022-09-09T12:15:57;24.50;52.00
38464;DHT22;24243;51.956;5.902;2022-09-09T12:18:24;24.50;52.00
38464;DHT22;24243;51.956;5.902;2022-09-09T12:28:39;24.50;52.10
38464;DHT22;24243;51.956;5.902;2022-09-09T12:34:11;24.50;52.20
38464;DHT22;24243;51.956;5.902;2022-09-09T12:36:38;24.50;52.20
38464;DHT22;24243;51.956;5.902;2022-09-09T12:39:09;24.50;52.20
38464;DHT22;24243;51.956;5.902;2022-09-09T12:41:36;24.50;52.20
38464;DHT22;24243;51.956;5.902;2022-09-09T12:44:05;24.50;52.20
38464;DHT22;24243;51.956;5.902;2022-09-09T12:46:44;24.50;52.10
38464;DHT22;24243;51.956;5.902;2022-09-09T12:51:54;24.50;52.10
38464;DHT22;24243;51.956;5.902;2022-09-09T12:54:22;24.50;52.10
38464;DHT22;24243;51.956;5.902;2022-09-09T12:56:48;24.50;52.10
38464;DHT22;24243;51.956;5.902;2022-09-09T12:59:25;24.60;52.20
38464;DHT22;24243;51.956;5.902;2022-09-09T13:01:57;24.50;52.10
38464;DHT22;24243;51.956;5.902;2022-09-09T13:04:23;24.50;52.10
38464;DHT22;24243;51.956;5.902;2022-09-09T13:06:49;24.50;52.10
38464;DHT22;24243;51.956;5.902;2022-09-09T13:09:14;24.50;52.20
38464;DHT22;24243;51.956;5.902;2022-09-09T13:11:45;24.50;52.20
38464;DHT22;24243;51.956;5.902;2022-09-09T13:14:21;24.50;52.30
38464;DHT22;24243;51.956;5.902;2022-09-09T13:16:58;24.50;52.30
38464;DHT22;24243;51.956;5.902;2022-09-09T13:19:24;24.50;52.40
38464;DHT22;24243;51.956;5.902;2022-09-09T13:21:53;24.50;52.50
38464;DHT22;24243;51.956;5.902;2022-09-09T13:24:24;24.50;52.40
38464;DHT22;24243;51.956;5.902;2022-09-09T13:26:57;24.50;52.40
38464;DHT22;24243;51.956;5.902;2022-09-09T13:29:23;24.50;52.40
38464;DHT22;24243;51.956;5.902;2022-09-09T13:31:48;24.50;52.40
38464;DHT22;24243;51.956;5.902;2022-09-09T13:36:53;24.50;52.40
38464;DHT22;24243;51.956;5.902;2022-09-09T13:39:20;24.50;52.40
38464;DHT22;24243;51.956;5.902;2022-09-09T13:41:46;24.50;52.40
38464;DHT22;24243;51.956;5.902;2022-09-09T13:44:16;24.50;52.40
38464;DHT22;24243;51.956;5.902;2022-09-09T13:46:43;24.50;52.40
38464;DHT22;24243;51.956;5.902;2022-09-09T13:54:00;24.50;52.40
38464;DHT22;24243;51.956;5.902;2022-09-09T13:56:26;24.50;52.50
38464;DHT22;24243;51.956;5.902;2022-09-09T13:58:52;24.50;52.50
38464;DHT22;24243;51.956;5.902;2022-09-09T14:01:17;24.40;52.50
38464;DHT22;24243;51.956;5.902;2022-09-09T14:03:43;24.50;52.50
38464;DHT22;24243;51.956;5.902;2022-09-09T14:06:09;24.50;52.60
38464;DHT22;24243;51.956;5.902;2022-09-09T14:08:35;24.50;52.60
38464;DHT22;24243;51.956;5.902;2022-09-09T14:11:03;24.50;52.60
38464;DHT22;24243;51.956;5.902;2022-09-09T14:13:28;24.50;52.50
38464;DHT22;24243;51.956;5.902;2022-09-09T14:15:54;24.50;52.50
38464;DHT22;24243;51.956;5.902;2022-09-09T14:18:19;24.60;52.50
38464;DHT22;24243;51.956;5.902;2022-09-09T14:20:45;24.60;52.40
38464;DHT22;24243;51.956;5.902;2022-09-09T14:23:11;24.60;52.40
38464;DHT22;24243;51.956;5.902;2022-09-09T14:25:39;24.70;52.40
38464;DHT22;24243;51.956;5.902;2022-09-09T14:28:04;24.70;52.30
38464;DHT22;24243;51.956;5.902;2022-09-09T14:30:30;24.70;52.30
38464;DHT22;24243;51.956;5.902;2022-09-09T14:32:55;24.70;52.30
38464;DHT22;24243;51.956;5.902;2022-09-09T14:35:21;24.70;52.30
38464;DHT22;24243;51.956;5.902;2022-09-09T14:37:47;24.70;52.30
38464;DHT22;24243;51.956;5.902;2022-09-09T14:40:14;24.70;52.30
38464;DHT22;24243;51.956;5.902;2022-09-09T14:42:40;24.70;52.30
38464;DHT22;24243;51.956;5.902;2022-09-09T14:45:06;24.70;52.30
38464;DHT22;24243;51.956;5.902;2022-09-09T14:47:32;24.80;52.30
38464;DHT22;24243;51.956;5.902;2022-09-09T14:49:57;24.80;52.30
38464;DHT22;24243;51.956;5.902;2022-09-09T14:52:23;24.80;52.30
38464;DHT22;24243;51.956;5.902;2022-09-09T14:54:48;24.80;52.90
38464;DHT22;24243;51.956;5.902;2022-09-09T14:57:14;24.80;52.30
38464;DHT22;24243;51.956;5.902;2022-09-09T14:59:40;24.80;52.30
38464;DHT22;24243;51.956;5.902;2022-09-09T15:02:07;24.80;52.30
38464;DHT22;24243;51.956;5.902;2022-09-09T15:04:33;24.80;52.30
38464;DHT22;24243;51.956;5.902;2022-09-09T15:06:59;24.80;52.20
38464;DHT22;24243;51.956;5.902;2022-09-09T15:09:24;24.90;52.30
38464;DHT22;24243;51.956;5.902;2022-09-09T15:11:50;24.90;52.30
38464;DHT22;24243;51.956;5.902;2022-09-09T15:14:16;24.90;52.30
38464;DHT22;24243;51.956;5.902;2022-09-09T15:16:42;24.90;52.30
38464;DHT22;24243;51.956;5.902;2022-09-09T15:19:08;24.90;52.30
38464;DHT22;24243;51.956;5.902;2022-09-09T15:21:35;24.90;52.30
38464;DHT22;24243;51.956;5.902;2022-09-09T15:24:01;24.90;52.30
38464;DHT22;24243;51.956;5.902;2022-09-09T15:26:27;24.80;52.30
38464;DHT22;24243;51.956;5.902;2022-09-09T15:28:52;24.80;52.40
38464;DHT22;24243;51.956;5.902;2022-09-09T15:31:22;24.80;52.40
38464;DHT22;24243;51.956;5.902;2022-09-09T15:33:48;24.70;52.40
38464;DHT22;24243;51.956;5.902;2022-09-09T15:36:14;24.70;52.40
38464;DHT22;24243;51.956;5.902;2022-09-09T15:38:40;24.70;52.50
38464;DHT22;24243;51.956;5.902;2022-09-09T15:41:06;24.70;52.50
38464;DHT22;24243;51.956;5.902;2022-09-09T15:43:31;24.70;52.60
38464;DHT22;24243;51.956;5.902;2022-09-09T15:45:59;24.60;52.50
38464;DHT22;24243;51.956;5.902;2022-09-09T15:48:30;24.60;53.30
38464;DHT22;24243;51.956;5.902;2022-09-09T15:51:02;24.60;52.60
38464;DHT22;24243;51.956;5.902;2022-09-09T15:53:29;24.60;52.60
38464;DHT22;24243;51.956;5.902;2022-09-09T15:55:55;24.60;52.60
38464;DHT22;24243;51.956;5.902;2022-09-09T15:58:21;24.60;52.50
38464;DHT22;24243;51.956;5.902;2022-09-09T16:00:46;24.60;52.50
38464;DHT22;24243;51.956;5.902;2022-09-09T16:03:12;24.60;52.60
38464;DHT22;24243;51.956;5.902;2022-09-09T16:05:38;24.50;52.50
38464;DHT22;24243;51.956;5.902;2022-09-09T16:08:03;24.50;52.50
38464;DHT22;24243;51.956;5.902;2022-09-09T16:10:29;24.50;52.50
38464;DHT22;24243;51.956;5.902;2022-09-09T16:12:56;24.50;52.60
38464;DHT22;24243;51.956;5.902;2022-09-09T16:15:21;24.50;52.70
38464;DHT22;24243;51.956;5.902;2022-09-09T16:17:48;24.50;52.70
38464;DHT22;24243;51.956;5.902;2022-09-09T16:20:14;24.50;52.80
38464;DHT22;24243;51.956;5.902;2022-09-09T16:22:40;24.40;52.90
38464;DHT22;24243;51.956;5.902;2022-09-09T16:25:05;24.40;53.00
38464;DHT22;24243;51.956;5.902;2022-09-09T16:27:31;24.50;53.10
38464;DHT22;24243;51.956;5.902;2022-09-09T16:29:57;24.50;53.20
38464;DHT22;24243;51.956;5.902;2022-09-09T16:32:22;24.40;53.20
38464;DHT22;24243;51.956;5.902;2022-09-09T16:34:48;24.40;53.30
38464;DHT22;24243;51.956;5.902;2022-09-09T16:37:13;24.40;53.40
38464;DHT22;24243;51.956;5.902;2022-09-09T16:39:39;24.40;53.40
38464;DHT22;24243;51.956;5.902;2022-09-09T16:42:04;24.40;53.50
38464;DHT22;24243;51.956;5.902;2022-09-09T16:44:30;24.40;53.50
38464;DHT22;24243;51.956;5.902;2022-09-09T16:46:56;24.40;53.50
38464;DHT22;24243;51.956;5.902;2022-09-09T16:49:21;24.40;53.50
38464;DHT22;24243;51.956;5.902;2022-09-09T16:51:48;24.40;53.60
38464;DHT22;24243;51.956;5.902;2022-09-09T16:54:15;24.40;53.60
38464;DHT22;24243;51.956;5.902;2022-09-09T16:56:42;24.40;53.60
38464;DHT22;24243;51.956;5.902;2022-09-09T16:59:09;24.40;53.60
38464;DHT22;24243;51.956;5.902;2022-09-09T17:01:35;24.50;53.80
38464;DHT22;24243;51.956;5.902;2022-09-09T17:04:12;24.50;53.80
38464;DHT22;24243;51.956;5.902;2022-09-09T17:06:39;24.50;53.80
38464;DHT22;24243;51.956;5.902;2022-09-09T17:09:07;24.50;53.80
38464;DHT22;24243;51.956;5.902;2022-09-09T17:11:33;24.50;53.90
38464;DHT22;24243;51.956;5.902;2022-09-09T17:13:59;24.50;53.90
38464;DHT22;24243;51.956;5.902;2022-09-09T17:16:26;24.40;53.90
38464;DHT22;24243;51.956;5.902;2022-09-09T17:18:56;24.50;54.00
38464;DHT22;24243;51.956;5.902;2022-09-09T17:21:23;24.40;54.00
38464;DHT22;24243;51.956;5.902;2022-09-09T17:23:50;24.40;54.70
38464;DHT22;24243;51.956;5.902;2022-09-09T17:26:17;24.40;54.10
38464;DHT22;24243;51.956;5.902;2022-09-09T17:28:43;24.30;54.00
38464;DHT22;24243;51.956;5.902;2022-09-09T17:31:11;24.30;54.10
38464;DHT22;24243;51.956;5.902;2022-09-09T17:33:38;24.30;54.10
38464;DHT22;24243;51.956;5.902;2022-09-09T17:36:11;24.30;54.20